sensor_id;sensor_type;location;lat;lon;timestamp;P1;durP1;ratioP1;P2;durP2;ratioP2
20415;SDS011;10367;52.202;5.996;2023-05-29T00:02:03;19.47;;;12.63;;
20415;SDS011;10367;52.202;5.996;2023-05-29T00:04:33;13.00;;;10.23;;
20415;SDS011;10367;52.202;5.996;2023-05-29T00:07:03;19.20;;;12.43;;
20415;SDS011;10367;52.202;5.996;2023-05-29T00:09:33;17.77;;;12.30;;
20415;SDS011;10367;52.202;5.996;2023-05-29T00:12:02;18.03;;;12.60;;
20415;SDS011;10367;52.202;5.996;2023-05-29T00:14:33;26.70;;;11.57;;
20415;SDS011;10367;52.202;5.996;2023-05-29T00:17:03;20.03;;;12.40;;
20415;SDS011;10367;52.202;5.996;2023-05-29T00:19:35;15.57;;;11.00;;
20415;SDS011;10367;52.202;5.996;2023-05-29T00:22:04;20.70;;;12.37;;
20415;SDS011;10367;52.202;5.996;2023-05-29T00:24:34;15.00;;;10.70;;
20415;SDS011;10367;52.202;5.996;2023-05-29T00:27:04;25.07;;;13.80;;
20415;SDS011;10367;52.202;5.996;2023-05-29T00:29:33;15.97;;;11.30;;
20415;SDS011;10367;52.202;5.996;2023-05-29T00:32:04;20.23;;;10.97;;
20415;SDS011;10367;52.202;5.996;2023-05-29T00:34:35;21.70;;;11.17;;
20415;SDS011;10367;52.202;5.996;2023-05-29T00:37:04;27.70;;;13.03;;
20415;SDS011;10367;52.202;5.996;2023-05-29T00:39:33;23.27;;;12.47;;
20415;SDS011;10367;52.202;5.996;2023-05-29T00:42:05;21.03;;;12.43;;
20415;SDS011;10367;52.202;5.996;2023-05-29T00:44:35;17.10;;;11.10;;
20415;SDS011;10367;52.202;5.996;2023-05-29T00:47:06;14.63;;;11.37;;
20415;SDS011;10367;52.202;5.996;2023-05-29T00:49:43;12.03;;;10.27;;
20415;SDS011;10367;52.202;5.996;2023-05-29T00:52:12;15.93;;;10.80;;
20415;SDS011;10367;52.202;5.996;2023-05-29T00:54:42;20.13;;;10.20;;
20415;SDS011;10367;52.202;5.996;2023-05-29T00:57:13;22.73;;;12.57;;
20415;SDS011;10367;52.202;5.996;2023-05-29T00:59:43;19.03;;;10.37;;
20415;SDS011;10367;52.202;5.996;2023-05-29T01:02:15;23.90;;;11.67;;
20415;SDS011;10367;52.202;5.996;2023-05-29T01:04:45;13.27;;;9.27;;
20415;SDS011;10367;52.202;5.996;2023-05-29T01:07:14;16.27;;;11.70;;
20415;SDS011;10367;52.202;5.996;2023-05-29T01:09:43;13.00;;;10.93;;
20415;SDS011;10367;52.202;5.996;2023-05-29T01:12:17;14.57;;;10.50;;
20415;SDS011;10367;52.202;5.996;2023-05-29T01:14:57;19.83;;;9.47;;
20415;SDS011;10367;52.202;5.996;2023-05-29T01:17:39;13.77;;;9.67;;
20415;SDS011;10367;52.202;5.996;2023-05-29T01:20:18;17.23;;;10.87;;
20415;SDS011;10367;52.202;5.996;2023-05-29T01:23:07;22.30;;;11.73;;
20415;SDS011;10367;52.202;5.996;2023-05-29T01:25:46;14.17;;;10.43;;
20415;SDS011;10367;52.202;5.996;2023-05-29T01:28:28;16.73;;;10.97;;
20415;SDS011;10367;52.202;5.996;2023-05-29T01:31:05;14.90;;;10.30;;
20415;SDS011;10367;52.202;5.996;2023-05-29T01:33:38;26.60;;;11.33;;
20415;SDS011;10367;52.202;5.996;2023-05-29T01:36:10;19.57;;;12.57;;
20415;SDS011;10367;52.202;5.996;2023-05-29T01:38:39;12.83;;;10.57;;
20415;SDS011;10367;52.202;5.996;2023-05-29T01:41:07;18.27;;;10.63;;
20415;SDS011;10367;52.202;5.996;2023-05-29T01:43:41;13.87;;;10.03;;
20415;SDS011;10367;52.202;5.996;2023-05-29T01:46:11;16.90;;;10.90;;
20415;SDS011;10367;52.202;5.996;2023-05-29T01:48:42;19.17;;;10.07;;
20415;SDS011;10367;52.202;5.996;2023-05-29T01:51:14;15.87;;;11.07;;
20415;SDS011;10367;52.202;5.996;2023-05-29T01:53:43;18.23;;;11.23;;
20415;SDS011;10367;52.202;5.996;2023-05-29T01:56:13;14.90;;;10.00;;
20415;SDS011;10367;52.202;5.996;2023-05-29T01:58:44;15.43;;;10.83;;
20415;SDS011;10367;52.202;5.996;2023-05-29T02:01:14;25.67;;;11.20;;
20415;SDS011;10367;52.202;5.996;2023-05-29T02:03:43;12.73;;;10.07;;
20415;SDS011;10367;52.202;5.996;2023-05-29T02:06:14;18.17;;;11.10;;
20415;SDS011;10367;52.202;5.996;2023-05-29T02:08:43;19.30;;;12.20;;
20415;SDS011;10367;52.202;5.996;2023-05-29T02:11:12;19.97;;;10.70;;
20415;SDS011;10367;52.202;5.996;2023-05-29T02:13:41;14.03;;;10.50;;
20415;SDS011;10367;52.202;5.996;2023-05-29T02:16:11;21.00;;;11.83;;
20415;SDS011;10367;52.202;5.996;2023-05-29T02:18:40;14.33;;;10.37;;
20415;SDS011;10367;52.202;5.996;2023-05-29T02:21:10;14.97;;;10.97;;
20415;SDS011;10367;52.202;5.996;2023-05-29T02:23:43;12.80;;;9.77;;
20415;SDS011;10367;52.202;5.996;2023-05-29T02:26:12;17.53;;;10.60;;
20415;SDS011;10367;52.202;5.996;2023-05-29T02:28:42;12.67;;;9.80;;
20415;SDS011;10367;52.202;5.996;2023-05-29T02:31:12;15.83;;;10.67;;
20415;SDS011;10367;52.202;5.996;2023-05-29T02:33:41;15.23;;;9.80;;
20415;SDS011;10367;52.202;5.996;2023-05-29T02:36:10;16.53;;;11.03;;
20415;SDS011;10367;52.202;5.996;2023-05-29T02:38:39;18.23;;;9.13;;
20415;SDS011;10367;52.202;5.996;2023-05-29T02:41:08;15.43;;;10.07;;
20415;SDS011;10367;52.202;5.996;2023-05-29T02:43:36;19.03;;;9.87;;
20415;SDS011;10367;52.202;5.996;2023-05-29T02:46:07;13.67;;;10.33;;
20415;SDS011;10367;52.202;5.996;2023-05-29T02:48:35;16.23;;;10.77;;
20415;SDS011;10367;52.202;5.996;2023-05-29T02:51:04;18.93;;;10.60;;
20415;SDS011;10367;52.202;5.996;2023-05-29T02:53:33;13.43;;;9.57;;
20415;SDS011;10367;52.202;5.996;2023-05-29T02:56:08;15.07;;;11.17;;
20415;SDS011;10367;52.202;5.996;2023-05-29T02:58:37;17.40;;;9.20;;
20415;SDS011;10367;52.202;5.996;2023-05-29T03:01:07;23.57;;;10.33;;
20415;SDS011;10367;52.202;5.996;2023-05-29T03:03:36;11.13;;;9.70;;
20415;SDS011;10367;52.202;5.996;2023-05-29T03:06:05;16.90;;;9.80;;
20415;SDS011;10367;52.202;5.996;2023-05-29T03:08:35;15.50;;;9.67;;
20415;SDS011;10367;52.202;5.996;2023-05-29T03:11:07;20.73;;;11.03;;
20415;SDS011;10367;52.202;5.996;2023-05-29T03:13:38;21.93;;;10.27;;
20415;SDS011;10367;52.202;5.996;2023-05-29T03:16:11;17.03;;;10.77;;
20415;SDS011;10367;52.202;5.996;2023-05-29T03:18:40;22.80;;;9.87;;
20415;SDS011;10367;52.202;5.996;2023-05-29T03:21:09;15.60;;;10.90;;
20415;SDS011;10367;52.202;5.996;2023-05-29T03:23:38;20.70;;;10.20;;
20415;SDS011;10367;52.202;5.996;2023-05-29T03:26:07;16.60;;;10.50;;
20415;SDS011;10367;52.202;5.996;2023-05-29T03:28:35;9.67;;;8.77;;
20415;SDS011;10367;52.202;5.996;2023-05-29T03:31:04;18.70;;;9.33;;
20415;SDS011;10367;52.202;5.996;2023-05-29T03:33:36;15.30;;;9.97;;
20415;SDS011;10367;52.202;5.996;2023-05-29T03:36:05;13.30;;;9.83;;
20415;SDS011;10367;52.202;5.996;2023-05-29T03:38:35;12.63;;;9.60;;
20415;SDS011;10367;52.202;5.996;2023-05-29T03:41:04;14.10;;;8.90;;
20415;SDS011;10367;52.202;5.996;2023-05-29T03:43:32;13.97;;;9.07;;
20415;SDS011;10367;52.202;5.996;2023-05-29T03:46:03;16.60;;;10.07;;
20415;SDS011;10367;52.202;5.996;2023-05-29T03:48:32;10.90;;;8.70;;
20415;SDS011;10367;52.202;5.996;2023-05-29T03:51:02;19.60;;;9.27;;
20415;SDS011;10367;52.202;5.996;2023-05-29T03:53:32;25.23;;;10.73;;
20415;SDS011;10367;52.202;5.996;2023-05-29T03:56:00;16.13;;;9.50;;
20415;SDS011;10367;52.202;5.996;2023-05-29T03:58:29;14.13;;;10.33;;
20415;SDS011;10367;52.202;5.996;2023-05-29T04:00:59;10.07;;;8.57;;
20415;SDS011;10367;52.202;5.996;2023-05-29T04:03:28;12.50;;;8.70;;
20415;SDS011;10367;52.202;5.996;2023-05-29T04:05:58;16.00;;;9.17;;
20415;SDS011;10367;52.202;5.996;2023-05-29T04:08:28;11.70;;;8.80;;
20415;SDS011;10367;52.202;5.996;2023-05-29T04:11:05;18.97;;;8.93;;
20415;SDS011;10367;52.202;5.996;2023-05-29T04:13:36;14.33;;;10.00;;
20415;SDS011;10367;52.202;5.996;2023-05-29T04:16:06;12.10;;;9.37;;
20415;SDS011;10367;52.202;5.996;2023-05-29T04:18:35;16.60;;;9.67;;
20415;SDS011;10367;52.202;5.996;2023-05-29T04:21:04;9.83;;;8.77;;
20415;SDS011;10367;52.202;5.996;2023-05-29T04:23:34;22.20;;;10.10;;
20415;SDS011;10367;52.202;5.996;2023-05-29T04:26:02;12.97;;;10.20;;
20415;SDS011;10367;52.202;5.996;2023-05-29T04:28:32;13.27;;;11.17;;
20415;SDS011;10367;52.202;5.996;2023-05-29T04:31:07;10.57;;;9.33;;
20415;SDS011;10367;52.202;5.996;2023-05-29T04:33:41;11.90;;;9.70;;
20415;SDS011;10367;52.202;5.996;2023-05-29T04:36:12;13.87;;;9.23;;
20415;SDS011;10367;52.202;5.996;2023-05-29T04:38:44;14.77;;;9.80;;
20415;SDS011;10367;52.202;5.996;2023-05-29T04:41:14;19.20;;;9.87;;
20415;SDS011;10367;52.202;5.996;2023-05-29T04:43:43;19.87;;;9.83;;
20415;SDS011;10367;52.202;5.996;2023-05-29T04:46:12;12.27;;;9.43;;
20415;SDS011;10367;52.202;5.996;2023-05-29T04:48:42;16.27;;;10.30;;
20415;SDS011;10367;52.202;5.996;2023-05-29T04:51:11;16.93;;;10.57;;
20415;SDS011;10367;52.202;5.996;2023-05-29T04:53:39;14.43;;;10.43;;
20415;SDS011;10367;52.202;5.996;2023-05-29T04:56:10;22.80;;;10.53;;
20415;SDS011;10367;52.202;5.996;2023-05-29T04:58:39;12.20;;;8.23;;
20415;SDS011;10367;52.202;5.996;2023-05-29T05:01:09;11.23;;;9.73;;
20415;SDS011;10367;52.202;5.996;2023-05-29T05:03:41;11.67;;;8.93;;
20415;SDS011;10367;52.202;5.996;2023-05-29T05:06:10;9.53;;;8.57;;
20415;SDS011;10367;52.202;5.996;2023-05-29T05:08:42;13.00;;;9.80;;
20415;SDS011;10367;52.202;5.996;2023-05-29T05:11:12;17.73;;;11.00;;
20415;SDS011;10367;52.202;5.996;2023-05-29T05:13:42;10.57;;;9.27;;
20415;SDS011;10367;52.202;5.996;2023-05-29T05:16:10;18.80;;;11.13;;
20415;SDS011;10367;52.202;5.996;2023-05-29T05:18:40;9.53;;;8.67;;
20415;SDS011;10367;52.202;5.996;2023-05-29T05:21:08;16.40;;;10.00;;
20415;SDS011;10367;52.202;5.996;2023-05-29T05:23:38;11.80;;;9.07;;
20415;SDS011;10367;52.202;5.996;2023-05-29T05:26:12;16.00;;;10.47;;
20415;SDS011;10367;52.202;5.996;2023-05-29T05:28:42;12.90;;;9.93;;
20415;SDS011;10367;52.202;5.996;2023-05-29T05:31:11;11.50;;;10.37;;
20415;SDS011;10367;52.202;5.996;2023-05-29T05:33:39;14.07;;;10.10;;
20415;SDS011;10367;52.202;5.996;2023-05-29T05:36:08;16.07;;;10.53;;
20415;SDS011;10367;52.202;5.996;2023-05-29T05:38:37;11.33;;;9.07;;
20415;SDS011;10367;52.202;5.996;2023-05-29T05:41:06;14.43;;;9.63;;
20415;SDS011;10367;52.202;5.996;2023-05-29T05:43:38;11.20;;;10.10;;
20415;SDS011;10367;52.202;5.996;2023-05-29T05:46:07;16.40;;;11.80;;
20415;SDS011;10367;52.202;5.996;2023-05-29T05:48:36;20.83;;;10.40;;
20415;SDS011;10367;52.202;5.996;2023-05-29T05:51:05;15.90;;;10.57;;
20415;SDS011;10367;52.202;5.996;2023-05-29T05:53:37;17.53;;;9.67;;
20415;SDS011;10367;52.202;5.996;2023-05-29T05:56:06;21.10;;;10.50;;
20415;SDS011;10367;52.202;5.996;2023-05-29T05:58:35;20.40;;;10.93;;
20415;SDS011;10367;52.202;5.996;2023-05-29T06:01:06;19.10;;;11.10;;
20415;SDS011;10367;52.202;5.996;2023-05-29T06:03:35;14.70;;;10.37;;
20415;SDS011;10367;52.202;5.996;2023-05-29T06:06:05;22.37;;;11.27;;
20415;SDS011;10367;52.202;5.996;2023-05-29T06:08:34;21.03;;;12.47;;
20415;SDS011;10367;52.202;5.996;2023-05-29T06:11:07;18.80;;;10.57;;
20415;SDS011;10367;52.202;5.996;2023-05-29T06:13:36;20.63;;;10.67;;
20415;SDS011;10367;52.202;5.996;2023-05-29T06:16:07;18.03;;;11.53;;
20415;SDS011;10367;52.202;5.996;2023-05-29T06:18:37;15.60;;;10.77;;
20415;SDS011;10367;52.202;5.996;2023-05-29T06:21:08;15.97;;;11.90;;
20415;SDS011;10367;52.202;5.996;2023-05-29T06:23:37;18.00;;;10.57;;
20415;SDS011;10367;52.202;5.996;2023-05-29T06:26:10;13.03;;;11.60;;
20415;SDS011;10367;52.202;5.996;2023-05-29T06:28:40;11.43;;;10.23;;
20415;SDS011;10367;52.202;5.996;2023-05-29T06:31:10;14.83;;;10.63;;
20415;SDS011;10367;52.202;5.996;2023-05-29T06:33:39;10.90;;;10.00;;
20415;SDS011;10367;52.202;5.996;2023-05-29T06:36:08;18.83;;;10.47;;
20415;SDS011;10367;52.202;5.996;2023-05-29T06:38:37;11.03;;;10.03;;
20415;SDS011;10367;52.202;5.996;2023-05-29T06:41:19;13.83;;;10.30;;
20415;SDS011;10367;52.202;5.996;2023-05-29T06:43:52;13.93;;;10.17;;
20415;SDS011;10367;52.202;5.996;2023-05-29T06:46:22;17.17;;;12.23;;
20415;SDS011;10367;52.202;5.996;2023-05-29T06:48:51;12.13;;;10.20;;
20415;SDS011;10367;52.202;5.996;2023-05-29T06:51:20;18.10;;;11.70;;
20415;SDS011;10367;52.202;5.996;2023-05-29T06:53:49;15.97;;;11.10;;
20415;SDS011;10367;52.202;5.996;2023-05-29T06:56:18;13.50;;;11.50;;
20415;SDS011;10367;52.202;5.996;2023-05-29T06:58:47;15.73;;;12.10;;
20415;SDS011;10367;52.202;5.996;2023-05-29T07:01:16;12.23;;;10.97;;
20415;SDS011;10367;52.202;5.996;2023-05-29T07:03:47;22.17;;;13.07;;
20415;SDS011;10367;52.202;5.996;2023-05-29T07:06:20;15.63;;;12.37;;
20415;SDS011;10367;52.202;5.996;2023-05-29T07:08:49;16.27;;;11.70;;
20415;SDS011;10367;52.202;5.996;2023-05-29T07:11:18;14.40;;;10.70;;
20415;SDS011;10367;52.202;5.996;2023-05-29T07:13:47;12.47;;;11.30;;
20415;SDS011;10367;52.202;5.996;2023-05-29T07:16:16;12.63;;;10.83;;
20415;SDS011;10367;52.202;5.996;2023-05-29T07:18:52;12.77;;;11.50;;
20415;SDS011;10367;52.202;5.996;2023-05-29T07:21:21;12.43;;;11.27;;
20415;SDS011;10367;52.202;5.996;2023-05-29T07:23:52;13.80;;;12.30;;
20415;SDS011;10367;52.202;5.996;2023-05-29T07:26:21;13.57;;;12.17;;
20415;SDS011;10367;52.202;5.996;2023-05-29T07:28:50;11.67;;;10.67;;
20415;SDS011;10367;52.202;5.996;2023-05-29T07:31:19;13.83;;;11.60;;
20415;SDS011;10367;52.202;5.996;2023-05-29T07:33:48;12.20;;;11.13;;
20415;SDS011;10367;52.202;5.996;2023-05-29T07:36:18;15.20;;;12.63;;
20415;SDS011;10367;52.202;5.996;2023-05-29T07:38:47;14.73;;;11.83;;
20415;SDS011;10367;52.202;5.996;2023-05-29T07:41:16;15.30;;;12.87;;
20415;SDS011;10367;52.202;5.996;2023-05-29T07:43:45;19.10;;;13.90;;
20415;SDS011;10367;52.202;5.996;2023-05-29T07:46:25;20.27;;;13.00;;
20415;SDS011;10367;52.202;5.996;2023-05-29T07:48:54;17.13;;;13.50;;
20415;SDS011;10367;52.202;5.996;2023-05-29T07:51:24;18.37;;;12.10;;
20415;SDS011;10367;52.202;5.996;2023-05-29T07:53:53;13.87;;;12.57;;
20415;SDS011;10367;52.202;5.996;2023-05-29T07:56:22;23.13;;;13.10;;
20415;SDS011;10367;52.202;5.996;2023-05-29T07:58:52;17.80;;;12.10;;
20415;SDS011;10367;52.202;5.996;2023-05-29T08:01:24;14.90;;;12.50;;
20415;SDS011;10367;52.202;5.996;2023-05-29T08:03:52;18.50;;;13.17;;
20415;SDS011;10367;52.202;5.996;2023-05-29T08:06:22;17.73;;;13.67;;
20415;SDS011;10367;52.202;5.996;2023-05-29T08:08:54;17.10;;;14.17;;
20415;SDS011;10367;52.202;5.996;2023-05-29T08:11:27;14.30;;;12.90;;
20415;SDS011;10367;52.202;5.996;2023-05-29T08:13:58;16.10;;;13.90;;
20415;SDS011;10367;52.202;5.996;2023-05-29T08:16:27;15.17;;;13.70;;
20415;SDS011;10367;52.202;5.996;2023-05-29T08:18:58;14.60;;;12.97;;
20415;SDS011;10367;52.202;5.996;2023-05-29T08:21:30;16.23;;;13.63;;
20415;SDS011;10367;52.202;5.996;2023-05-29T08:24:01;14.90;;;13.37;;
20415;SDS011;10367;52.202;5.996;2023-05-29T08:26:32;22.00;;;15.47;;
20415;SDS011;10367;52.202;5.996;2023-05-29T08:29:01;16.27;;;13.63;;
20415;SDS011;10367;52.202;5.996;2023-05-29T08:31:30;21.20;;;14.13;;
20415;SDS011;10367;52.202;5.996;2023-05-29T08:33:59;15.50;;;13.90;;
20415;SDS011;10367;52.202;5.996;2023-05-29T08:36:27;16.20;;;14.33;;
20415;SDS011;10367;52.202;5.996;2023-05-29T08:38:56;15.10;;;13.80;;
20415;SDS011;10367;52.202;5.996;2023-05-29T08:41:31;21.60;;;14.53;;
20415;SDS011;10367;52.202;5.996;2023-05-29T08:44:08;17.30;;;15.07;;
20415;SDS011;10367;52.202;5.996;2023-05-29T08:46:41;18.37;;;16.10;;
20415;SDS011;10367;52.202;5.996;2023-05-29T08:49:11;21.70;;;16.23;;
20415;SDS011;10367;52.202;5.996;2023-05-29T08:51:47;17.63;;;15.13;;
20415;SDS011;10367;52.202;5.996;2023-05-29T08:54:18;18.07;;;16.53;;
20415;SDS011;10367;52.202;5.996;2023-05-29T08:56:48;15.80;;;14.33;;
20415;SDS011;10367;52.202;5.996;2023-05-29T08:59:17;17.23;;;15.57;;
20415;SDS011;10367;52.202;5.996;2023-05-29T09:01:47;16.03;;;14.43;;
20415;SDS011;10367;52.202;5.996;2023-05-29T09:04:16;17.73;;;16.07;;
20415;SDS011;10367;52.202;5.996;2023-05-29T09:06:45;16.53;;;15.23;;
20415;SDS011;10367;52.202;5.996;2023-05-29T09:09:15;16.47;;;14.87;;
20415;SDS011;10367;52.202;5.996;2023-05-29T09:11:44;21.47;;;17.07;;
20415;SDS011;10367;52.202;5.996;2023-05-29T09:17:02;17.90;;;15.77;;
20415;SDS011;10367;52.202;5.996;2023-05-29T09:19:33;18.73;;;16.87;;
20415;SDS011;10367;52.202;5.996;2023-05-29T09:22:02;16.77;;;15.27;;
20415;SDS011;10367;52.202;5.996;2023-05-29T09:24:32;18.53;;;16.03;;
20415;SDS011;10367;52.202;5.996;2023-05-29T09:27:03;19.60;;;15.93;;
20415;SDS011;10367;52.202;5.996;2023-05-29T09:29:39;19.17;;;16.70;;
20415;SDS011;10367;52.202;5.996;2023-05-29T09:32:09;19.63;;;16.07;;
20415;SDS011;10367;52.202;5.996;2023-05-29T09:34:38;22.40;;;17.00;;
20415;SDS011;10367;52.202;5.996;2023-05-29T09:37:08;18.63;;;16.83;;
20415;SDS011;10367;52.202;5.996;2023-05-29T09:42:21;17.97;;;16.50;;
20415;SDS011;10367;52.202;5.996;2023-05-29T09:44:53;18.73;;;16.97;;
20415;SDS011;10367;52.202;5.996;2023-05-29T09:47:23;17.53;;;15.73;;
20415;SDS011;10367;52.202;5.996;2023-05-29T09:49:52;19.27;;;16.77;;
20415;SDS011;10367;52.202;5.996;2023-05-29T09:52:21;17.87;;;16.07;;
20415;SDS011;10367;52.202;5.996;2023-05-29T09:54:50;17.73;;;16.13;;
20415;SDS011;10367;52.202;5.996;2023-05-29T09:57:20;18.10;;;16.73;;
20415;SDS011;10367;52.202;5.996;2023-05-29T09:59:50;19.40;;;15.57;;
20415;SDS011;10367;52.202;5.996;2023-05-29T10:02:22;18.83;;;17.27;;
20415;SDS011;10367;52.202;5.996;2023-05-29T10:04:52;17.63;;;16.13;;
20415;SDS011;10367;52.202;5.996;2023-05-29T10:07:22;17.83;;;16.60;;
20415;SDS011;10367;52.202;5.996;2023-05-29T10:09:58;18.83;;;17.17;;
20415;SDS011;10367;52.202;5.996;2023-05-29T10:12:30;19.93;;;17.87;;
20415;SDS011;10367;52.202;5.996;2023-05-29T10:15:05;18.50;;;16.93;;
20415;SDS011;10367;52.202;5.996;2023-05-29T10:17:41;20.90;;;18.77;;
20415;SDS011;10367;52.202;5.996;2023-05-29T10:20:18;20.13;;;18.10;;
20415;SDS011;10367;52.202;5.996;2023-05-29T10:22:50;19.93;;;18.20;;
20415;SDS011;10367;52.202;5.996;2023-05-29T10:25:21;19.57;;;17.93;;
20415;SDS011;10367;52.202;5.996;2023-05-29T10:27:50;18.87;;;17.07;;
20415;SDS011;10367;52.202;5.996;2023-05-29T10:30:27;21.13;;;18.77;;
20415;SDS011;10367;52.202;5.996;2023-05-29T10:33:06;20.77;;;18.80;;
20415;SDS011;10367;52.202;5.996;2023-05-29T10:35:44;21.60;;;19.33;;
20415;SDS011;10367;52.202;5.996;2023-05-29T10:38:15;20.90;;;18.73;;
20415;SDS011;10367;52.202;5.996;2023-05-29T10:40:45;20.70;;;18.70;;
20415;SDS011;10367;52.202;5.996;2023-05-29T10:43:29;19.33;;;17.40;;
20415;SDS011;10367;52.202;5.996;2023-05-29T10:46:01;21.53;;;17.93;;
20415;SDS011;10367;52.202;5.996;2023-05-29T10:48:40;21.00;;;19.03;;
20415;SDS011;10367;52.202;5.996;2023-05-29T10:51:27;19.00;;;17.17;;
20415;SDS011;10367;52.202;5.996;2023-05-29T10:53:58;19.13;;;17.47;;
20415;SDS011;10367;52.202;5.996;2023-05-29T10:56:28;19.00;;;17.60;;
20415;SDS011;10367;52.202;5.996;2023-05-29T10:58:58;20.43;;;18.80;;
20415;SDS011;10367;52.202;5.996;2023-05-29T11:01:32;20.63;;;19.00;;
20415;SDS011;10367;52.202;5.996;2023-05-29T11:07:04;19.93;;;18.37;;
20415;SDS011;10367;52.202;5.996;2023-05-29T11:09:36;20.50;;;18.73;;
20415;SDS011;10367;52.202;5.996;2023-05-29T11:12:16;20.70;;;18.63;;
20415;SDS011;10367;52.202;5.996;2023-05-29T11:15:03;20.13;;;18.47;;
20415;SDS011;10367;52.202;5.996;2023-05-29T11:20:35;21.00;;;19.10;;
20415;SDS011;10367;52.202;5.996;2023-05-29T11:23:05;21.40;;;19.60;;
20415;SDS011;10367;52.202;5.996;2023-05-29T11:25:35;21.03;;;19.33;;
20415;SDS011;10367;52.202;5.996;2023-05-29T11:28:05;20.77;;;18.63;;
20415;SDS011;10367;52.202;5.996;2023-05-29T11:30:40;22.80;;;20.23;;
20415;SDS011;10367;52.202;5.996;2023-05-29T11:33:13;20.37;;;18.73;;
20415;SDS011;10367;52.202;5.996;2023-05-29T11:36:01;20.17;;;18.37;;
20415;SDS011;10367;52.202;5.996;2023-05-29T11:38:31;22.70;;;19.53;;
20415;SDS011;10367;52.202;5.996;2023-05-29T11:41:00;20.30;;;18.27;;
20415;SDS011;10367;52.202;5.996;2023-05-29T11:43:30;22.43;;;20.20;;
20415;SDS011;10367;52.202;5.996;2023-05-29T11:45:59;20.47;;;18.87;;
20415;SDS011;10367;52.202;5.996;2023-05-29T11:48:29;20.67;;;18.70;;
20415;SDS011;10367;52.202;5.996;2023-05-29T11:50:58;21.40;;;19.53;;
20415;SDS011;10367;52.202;5.996;2023-05-29T11:53:33;20.97;;;19.30;;
20415;SDS011;10367;52.202;5.996;2023-05-29T11:56:06;31.37;;;21.03;;
20415;SDS011;10367;52.202;5.996;2023-05-29T11:58:37;22.77;;;20.97;;
20415;SDS011;10367;52.202;5.996;2023-05-29T12:01:05;21.03;;;19.37;;
20415;SDS011;10367;52.202;5.996;2023-05-29T12:03:40;21.60;;;19.63;;
20415;SDS011;10367;52.202;5.996;2023-05-29T12:06:09;20.97;;;19.03;;
20415;SDS011;10367;52.202;5.996;2023-05-29T12:08:39;21.57;;;19.93;;
20415;SDS011;10367;52.202;5.996;2023-05-29T12:11:08;22.03;;;20.23;;
20415;SDS011;10367;52.202;5.996;2023-05-29T12:13:38;22.10;;;20.20;;
20415;SDS011;10367;52.202;5.996;2023-05-29T12:16:07;21.53;;;19.87;;
20415;SDS011;10367;52.202;5.996;2023-05-29T12:18:36;21.60;;;19.93;;
20415;SDS011;10367;52.202;5.996;2023-05-29T12:21:06;22.70;;;20.83;;
20415;SDS011;10367;52.202;5.996;2023-05-29T12:23:36;21.87;;;20.00;;
20415;SDS011;10367;52.202;5.996;2023-05-29T12:26:06;22.90;;;20.83;;
20415;SDS011;10367;52.202;5.996;2023-05-29T12:28:35;21.17;;;19.33;;
20415;SDS011;10367;52.202;5.996;2023-05-29T12:31:10;21.30;;;19.23;;
20415;SDS011;10367;52.202;5.996;2023-05-29T12:33:40;22.17;;;20.20;;
20415;SDS011;10367;52.202;5.996;2023-05-29T12:36:12;22.27;;;20.37;;
20415;SDS011;10367;52.202;5.996;2023-05-29T12:38:47;22.53;;;20.17;;
20415;SDS011;10367;52.202;5.996;2023-05-29T12:41:27;21.57;;;19.67;;
20415;SDS011;10367;52.202;5.996;2023-05-29T12:43:57;20.47;;;18.87;;
20415;SDS011;10367;52.202;5.996;2023-05-29T12:46:35;20.13;;;18.43;;
20415;SDS011;10367;52.202;5.996;2023-05-29T12:49:11;21.87;;;19.77;;
20415;SDS011;10367;52.202;5.996;2023-05-29T12:51:42;23.10;;;21.23;;
20415;SDS011;10367;52.202;5.996;2023-05-29T12:54:11;21.67;;;20.00;;
20415;SDS011;10367;52.202;5.996;2023-05-29T12:56:40;23.33;;;20.93;;
20415;SDS011;10367;52.202;5.996;2023-05-29T12:59:09;22.77;;;20.77;;
20415;SDS011;10367;52.202;5.996;2023-05-29T13:01:38;22.07;;;20.10;;
20415;SDS011;10367;52.202;5.996;2023-05-29T13:04:07;21.63;;;19.83;;
20415;SDS011;10367;52.202;5.996;2023-05-29T13:06:37;23.17;;;21.30;;
20415;SDS011;10367;52.202;5.996;2023-05-29T13:09:07;22.80;;;20.90;;
20415;SDS011;10367;52.202;5.996;2023-05-29T13:11:36;22.27;;;20.23;;
20415;SDS011;10367;52.202;5.996;2023-05-29T13:14:05;23.00;;;21.00;;
20415;SDS011;10367;52.202;5.996;2023-05-29T13:16:33;21.43;;;19.87;;
20415;SDS011;10367;52.202;5.996;2023-05-29T13:19:03;21.30;;;19.43;;
20415;SDS011;10367;52.202;5.996;2023-05-29T13:21:32;23.00;;;20.67;;
20415;SDS011;10367;52.202;5.996;2023-05-29T13:24:02;22.87;;;20.90;;
20415;SDS011;10367;52.202;5.996;2023-05-29T13:26:33;24.03;;;21.93;;
20415;SDS011;10367;52.202;5.996;2023-05-29T13:29:02;21.23;;;19.53;;
20415;SDS011;10367;52.202;5.996;2023-05-29T13:31:30;27.37;;;24.40;;
20415;SDS011;10367;52.202;5.996;2023-05-29T13:33:59;21.13;;;19.33;;
20415;SDS011;10367;52.202;5.996;2023-05-29T13:36:28;23.00;;;21.00;;
20415;SDS011;10367;52.202;5.996;2023-05-29T13:38:58;20.60;;;18.87;;
20415;SDS011;10367;52.202;5.996;2023-05-29T13:41:27;22.07;;;20.27;;
20415;SDS011;10367;52.202;5.996;2023-05-29T13:43:57;20.83;;;18.90;;
20415;SDS011;10367;52.202;5.996;2023-05-29T13:46:26;21.73;;;20.13;;
20415;SDS011;10367;52.202;5.996;2023-05-29T13:48:57;20.40;;;18.93;;
20415;SDS011;10367;52.202;5.996;2023-05-29T13:51:27;21.07;;;19.27;;
20415;SDS011;10367;52.202;5.996;2023-05-29T13:53:56;20.43;;;18.93;;
20415;SDS011;10367;52.202;5.996;2023-05-29T13:56:25;23.23;;;21.00;;
20415;SDS011;10367;52.202;5.996;2023-05-29T13:58:54;21.53;;;19.63;;
20415;SDS011;10367;52.202;5.996;2023-05-29T14:01:26;22.90;;;20.57;;
20415;SDS011;10367;52.202;5.996;2023-05-29T14:03:55;21.93;;;20.10;;
20415;SDS011;10367;52.202;5.996;2023-05-29T14:06:24;22.43;;;20.13;;
20415;SDS011;10367;52.202;5.996;2023-05-29T14:08:53;22.33;;;20.37;;
20415;SDS011;10367;52.202;5.996;2023-05-29T14:11:23;20.90;;;19.30;;
20415;SDS011;10367;52.202;5.996;2023-05-29T14:13:53;21.93;;;20.23;;
20415;SDS011;10367;52.202;5.996;2023-05-29T14:16:23;20.47;;;18.97;;
20415;SDS011;10367;52.202;5.996;2023-05-29T14:18:53;21.47;;;19.50;;
20415;SDS011;10367;52.202;5.996;2023-05-29T14:21:21;21.47;;;19.73;;
20415;SDS011;10367;52.202;5.996;2023-05-29T14:23:50;23.50;;;21.50;;
20415;SDS011;10367;52.202;5.996;2023-05-29T14:26:19;22.57;;;20.50;;
20415;SDS011;10367;52.202;5.996;2023-05-29T14:28:48;21.77;;;19.63;;
20415;SDS011;10367;52.202;5.996;2023-05-29T14:31:29;21.50;;;20.00;;
20415;SDS011;10367;52.202;5.996;2023-05-29T14:33:58;22.63;;;20.57;;
20415;SDS011;10367;52.202;5.996;2023-05-29T14:36:27;21.80;;;19.80;;
20415;SDS011;10367;52.202;5.996;2023-05-29T14:38:55;21.77;;;20.13;;
20415;SDS011;10367;52.202;5.996;2023-05-29T14:41:25;21.90;;;20.07;;
20415;SDS011;10367;52.202;5.996;2023-05-29T14:43:54;22.13;;;20.40;;
20415;SDS011;10367;52.202;5.996;2023-05-29T14:46:25;23.43;;;21.13;;
20415;SDS011;10367;52.202;5.996;2023-05-29T14:48:58;21.00;;;19.03;;
20415;SDS011;10367;52.202;5.996;2023-05-29T14:51:30;21.40;;;19.90;;
20415;SDS011;10367;52.202;5.996;2023-05-29T14:54:00;21.80;;;19.73;;
20415;SDS011;10367;52.202;5.996;2023-05-29T14:56:28;21.53;;;19.70;;